createdAt,value
2022-09-24T00:02:21.905Z,101234.84
2022-09-24T00:04:50.261Z,101234.84
2022-09-24T00:07:18.542Z,101232.19
2022-09-24T00:09:46.931Z,101233.09
2022-09-24T00:12:15.443Z,101229.56
2022-09-24T00:14:43.843Z,101229.56
2022-09-24T00:17:12.084Z,101223.38
2022-09-24T00:19:40.642Z,101216.34
2022-09-24T00:22:09.290Z,101223.38
2022-09-24T00:24:57.327Z,101223.38
2022-09-24T00:27:27.365Z,101224.28
2022-09-24T00:29:55.702Z,101215.44
2022-09-24T00:32:24.387Z,101219.88
2022-09-24T00:34:54.159Z,101212.81
2022-09-24T00:37:22.485Z,101224.25
2022-09-24T00:39:50.850Z,101214.56
2022-09-24T00:42:19.939Z,101214.56
2022-09-24T00:44:54.448Z,101221.63
2022-09-24T00:47:49.534Z,101209.28
2022-09-24T00:50:22.523Z,101207.53
2022-09-24T00:53:13.151Z,101210.16
2022-09-24T00:55:45.970Z,101209.28
2022-09-24T00:58:14.678Z,101208.41
2022-09-24T01:00:44.900Z,101211.06
2022-09-24T01:03:21.520Z,101208.41
2022-09-24T01:05:50.817Z,101207.53
2022-09-24T01:08:22.821Z,101207.53
2022-09-24T01:11:18.739Z,101203.13
2022-09-24T01:14:06.469Z,101213.69
2022-09-24T01:16:50.863Z,101204.88
2022-09-24T01:19:37.967Z,101204.91
2022-09-24T01:22:32.607Z,101201.34
2022-09-24T01:25:07.918Z,101203.13
2022-09-24T01:27:56.574Z,101198.69
2022-09-24T01:30:25.680Z,101193.41
2022-09-24T01:33:03.314Z,101196.06
2022-09-24T01:35:31.582Z,101185.47
2022-09-24T01:38:24.151Z,101193.41
2022-09-24T01:40:55.470Z,101182.81
2022-09-24T01:43:27.013Z,101188.13
2022-09-24T01:45:59.462Z,101188.13
2022-09-24T01:48:29.319Z,101189.88
2022-09-24T01:51:03.867Z,101188.13
2022-09-24T01:53:45.580Z,101184.59
2022-09-24T01:56:33.328Z,101185.47
2022-09-24T01:59:30.007Z,101186.38
2022-09-24T02:02:09.263Z,101187.25
2022-09-24T02:04:44.257Z,101179.31
2022-09-24T02:07:32.366Z,101179.31
2022-09-24T02:10:01.011Z,101181.06
2022-09-24T02:12:35.455Z,101172.25
2022-09-24T02:15:10.867Z,101176.66
2022-09-24T02:17:43.203Z,101175.78
2022-09-24T02:20:20.162Z,101182.84
2022-09-24T02:22:51.866Z,101173.13
2022-09-24T02:26:01.379Z,101173.13
2022-09-24T02:28:32.427Z,101170.50
2022-09-24T02:31:27.385Z,101178.44
2022-09-24T02:34:18.065Z,101167.81
2022-09-24T02:37:00.021Z,101166.97
2022-09-24T02:39:28.490Z,101159.03
2022-09-24T02:41:58.200Z,101159.91
2022-09-24T02:44:26.953Z,101158.16
2022-09-24T02:46:55.785Z,101160.78
2022-09-24T02:49:24.533Z,101154.59
2022-09-24T02:51:52.855Z,101154.59
2022-09-24T02:54:22.183Z,101158.16
2022-09-24T02:56:50.911Z,101156.38
2022-09-24T02:59:19.618Z,101154.59
2022-09-24T03:01:48.296Z,101151.09
2022-09-24T03:04:16.839Z,101145.78
2022-09-24T03:06:45.248Z,101150.19
2022-09-24T03:09:13.648Z,101154.59
2022-09-24T03:11:42.359Z,101156.34
2022-09-24T03:14:10.709Z,101151.94
2022-09-24T03:16:39.501Z,101148.44
2022-09-24T03:19:07.892Z,101155.47
2022-09-24T03:21:36.608Z,101152.81
2022-09-24T03:24:05.133Z,101155.47
2022-09-24T03:26:33.556Z,101157.25
2022-09-24T03:29:02.043Z,101152.81
2022-09-24T03:31:30.453Z,101158.97
2022-09-24T03:33:59.659Z,101149.31
2022-09-24T03:36:28.050Z,101152.81
2022-09-24T03:38:57.130Z,101150.19
2022-09-24T03:41:27.583Z,101150.19
2022-09-24T03:43:56.691Z,101150.19
2022-09-24T03:46:30.795Z,101144.00
2022-09-24T03:49:00.554Z,101147.53
2022-09-24T03:51:29.089Z,101147.53
2022-09-24T03:53:57.390Z,101150.19
2022-09-24T03:56:25.785Z,101140.50
2022-09-24T03:58:54.951Z,101143.13
2022-09-24T04:01:23.383Z,101144.00
2022-09-24T04:03:51.700Z,101145.78
2022-09-24T04:06:25.600Z,101138.72
2022-09-24T04:08:54.525Z,101148.44
2022-09-24T04:11:24.137Z,101144.00
2022-09-24T04:13:53.409Z,101148.44
2022-09-24T04:16:21.973Z,101145.78
2022-09-24T04:18:51.454Z,101142.25
2022-09-24T04:21:19.831Z,101142.25
2022-09-24T04:23:48.147Z,101139.59
2022-09-24T04:26:17.554Z,101145.75
2022-09-24T04:28:45.965Z,101138.72
2022-09-24T04:31:14.602Z,101138.72
2022-09-24T04:33:44.222Z,101146.63
2022-09-24T04:36:12.780Z,101137.81
2022-09-24T04:38:41.379Z,101135.19
2022-09-24T04:41:12.303Z,101139.59
2022-09-24T04:43:40.617Z,101136.94
2022-09-24T04:46:10.217Z,101132.53
2022-09-24T04:48:39.751Z,101133.41
2022-09-24T04:51:10.562Z,101131.66
2022-09-24T04:53:39.537Z,101133.41
2022-09-24T04:56:12.048Z,101131.63
2022-09-24T04:58:40.810Z,101130.75
2022-09-24T05:01:09.549Z,101130.75
2022-09-24T05:03:38.359Z,101133.41
2022-09-24T05:06:06.775Z,101136.06
2022-09-24T05:08:35.688Z,101137.78
2022-09-24T05:11:04.219Z,101145.75
2022-09-24T05:13:32.597Z,101140.44
2022-09-24T05:16:02.131Z,101132.50
2022-09-24T05:18:30.717Z,101136.91
2022-09-24T05:20:59.034Z,101133.38
2022-09-24T05:23:27.479Z,101133.38
2022-09-24T05:26:14.513Z,101134.25
2022-09-24T05:28:43.345Z,101134.25
2022-09-24T05:31:11.832Z,101137.78
2022-09-24T05:33:40.382Z,101133.34
2022-09-24T05:36:08.668Z,101133.34
2022-09-24T05:38:41.728Z,101135.13
2022-09-24T05:41:10.806Z,101132.47
2022-09-24T05:43:40.658Z,101133.38
2022-09-24T05:46:09.206Z,101137.78
2022-09-24T05:48:37.662Z,101142.19
2022-09-24T05:51:07.148Z,101146.63
2022-09-24T05:53:35.610Z,101147.50
2022-09-24T05:56:04.213Z,101149.25
2022-09-24T05:58:32.575Z,101158.06
2022-09-24T06:01:01.740Z,101154.56
2022-09-24T06:03:30.195Z,101149.22
2022-09-24T06:06:02.525Z,101159.81
2022-09-24T06:08:34.081Z,101153.66
2022-09-24T06:11:14.270Z,101155.44
2022-09-24T06:13:42.618Z,101160.72
2022-09-24T06:16:13.112Z,101155.41
2022-09-24T06:18:44.240Z,101160.69
2022-09-24T06:21:14.811Z,101159.81
2022-09-24T06:23:45.469Z,101154.53
2022-09-24T06:26:14.321Z,101156.28
2022-09-24T06:28:43.246Z,101158.91
2022-09-24T06:31:12.570Z,101162.47
2022-09-24T06:33:41.029Z,101164.22
2022-09-24T06:36:10.224Z,101163.34
2022-09-24T06:38:40.395Z,101158.91
2022-09-24T06:41:10.273Z,101161.56
2022-09-24T06:43:38.605Z,101170.41
2022-09-24T06:46:07.059Z,101172.16
2022-09-24T06:48:38.185Z,101169.50
2022-09-24T06:51:07.227Z,101167.75
2022-09-24T06:53:36.121Z,101166.88
2022-09-24T06:56:04.626Z,101170.41
2022-09-24T06:58:46.802Z,101169.53
2022-09-24T07:01:15.572Z,101175.72
2022-09-24T07:03:44.559Z,101169.53
2022-09-24T07:06:12.861Z,101170.41
2022-09-24T07:08:42.127Z,101173.94
2022-09-24T07:11:13.621Z,101178.34
2022-09-24T07:13:41.908Z,101184.53
2022-09-24T07:16:10.741Z,101179.22
2022-09-24T07:18:39.069Z,101181.88
2022-09-24T07:21:07.448Z,101186.25
2022-09-24T07:23:35.877Z,101187.13
2022-09-24T07:26:04.378Z,101184.50
2022-09-24T07:28:32.871Z,101193.31
2022-09-24T07:31:01.314Z,101203.00
2022-09-24T07:33:31.689Z,101195.06
2022-09-24T07:36:06.073Z,101203.00
2022-09-24T07:38:36.368Z,101200.34
2022-09-24T07:41:06.314Z,101205.66
2022-09-24T07:43:34.733Z,101204.78
2022-09-24T07:46:03.134Z,101207.38
2022-09-24T07:48:31.782Z,101200.34
2022-09-24T07:51:00.589Z,101202.09
2022-09-24T07:53:28.821Z,101206.53
2022-09-24T07:56:00.949Z,101212.69
2022-09-24T07:58:29.370Z,101211.78
2022-09-24T08:00:59.394Z,101209.13
2022-09-24T08:03:28.099Z,101211.78
2022-09-24T08:05:58.653Z,101210.91
2022-09-24T08:08:27.740Z,101210.00
2022-09-24T08:10:56.071Z,101214.41
2022-09-24T08:13:27.670Z,101222.31
2022-09-24T08:15:59.509Z,101217.88
2022-09-24T08:18:29.356Z,101219.63
2022-09-24T08:21:00.167Z,101217.84
2022-09-24T08:23:28.502Z,101216.94
2022-09-24T08:25:56.943Z,101225.75
2022-09-24T08:28:25.297Z,101224.84
2022-09-24T08:30:58.781Z,101223.94
2022-09-24T08:33:32.665Z,101229.22
2022-09-24T08:36:02.982Z,101231.00
2022-09-24T08:38:32.276Z,101240.75
2022-09-24T08:41:12.719Z,101241.66
2022-09-24T08:44:02.185Z,101239.03
2022-09-24T08:47:06.260Z,101235.53
2022-09-24T08:49:45.001Z,101241.72
2022-09-24T08:52:25.568Z,101250.53
2022-09-24T08:54:56.887Z,101245.25
2022-09-24T08:57:27.504Z,101258.50
2022-09-24T08:59:55.983Z,101262.00
2022-09-24T09:02:33.397Z,101253.16
2022-09-24T09:05:28.732Z,101263.75
2022-09-24T09:08:42.202Z,101263.75
2022-09-24T09:11:04.694Z,101258.44
2022-09-24T09:13:39.957Z,101259.31
2022-09-24T09:16:44.403Z,101264.63
2022-09-24T09:19:15.753Z,101272.63
2022-09-24T09:21:52.609Z,101269.97
2022-09-24T09:24:45.020Z,101267.31
2022-09-24T09:27:15.288Z,101270.84
2022-09-24T09:29:50.323Z,101264.66
2022-09-24T09:32:36.946Z,101274.38
2022-09-24T09:35:21.950Z,101273.50
2022-09-24T09:38:08.990Z,101269.97
2022-09-24T09:40:57.549Z,101278.84
2022-09-24T09:43:26.824Z,101283.25
2022-09-24T09:46:18.479Z,101285.00
2022-09-24T09:48:54.420Z,101291.19
2022-09-24T09:51:26.578Z,101280.59
2022-09-24T09:53:57.622Z,101285.00
2022-09-24T09:56:36.994Z,101283.25
2022-09-24T09:59:17.234Z,101289.41
2022-09-24T10:01:48.494Z,101292.06
2022-09-24T10:04:35.476Z,101285.88
2022-09-24T10:07:16.216Z,101293.84
2022-09-24T10:09:45.339Z,101290.34
2022-09-24T10:12:21.363Z,101293.88
2022-09-24T10:15:06.159Z,101292.09
2022-09-24T10:17:38.060Z,101294.75
2022-09-24T10:20:29.899Z,101294.75
2022-09-24T10:23:02.461Z,101292.97
2022-09-24T10:25:32.354Z,101306.25
2022-09-24T10:28:25.458Z,101289.50
2022-09-24T10:30:53.768Z,101304.50
2022-09-24T10:33:23.233Z,101305.38
2022-09-24T10:36:22.319Z,101297.41
2022-09-24T10:39:10.841Z,101297.41
2022-09-24T10:41:47.259Z,101302.72
2022-09-24T10:44:17.133Z,101300.06
2022-09-24T10:46:59.722Z,101299.19
2022-09-24T10:49:42.453Z,101289.47
2022-09-24T10:52:39.024Z,101295.63
2022-09-24T10:55:29.417Z,101298.25
2022-09-24T10:58:06.504Z,101295.59
2022-09-24T11:01:08.132Z,101300.91
2022-09-24T11:04:20.297Z,101304.44
2022-09-24T11:07:14.982Z,101304.44
2022-09-24T11:10:12.108Z,101305.31
2022-09-24T11:13:02.311Z,101305.31
2022-09-24T11:15:53.838Z,101310.59
2022-09-24T11:18:59.425Z,101314.13
2022-09-24T11:21:34.584Z,101315.91
2022-09-24T11:24:24.459Z,101313.25
2022-09-24T11:27:13.543Z,101318.56
2022-09-24T11:30:00.032Z,101317.66
2022-09-24T11:33:01.606Z,101320.31
2022-09-24T11:35:36.037Z,101318.56
2022-09-24T11:38:27.434Z,101315.91
2022-09-24T11:41:37.753Z,101321.19
2022-09-24T11:44:11.323Z,101312.41
2022-09-24T11:47:01.356Z,101324.75
2022-09-24T11:49:53.252Z,101332.72
2022-09-24T11:52:47.736Z,101326.53
2022-09-24T11:55:22.566Z,101328.31
2022-09-24T11:58:01.067Z,101332.72
2022-09-24T12:00:37.343Z,101336.25
2022-09-24T12:03:14.341Z,101325.66
2022-09-24T12:05:49.490Z,101336.25
2022-09-24T12:08:28.322Z,101326.53
2022-09-24T12:11:14.944Z,101324.78
2022-09-24T12:13:52.647Z,101338.03
2022-09-24T12:16:27.995Z,101327.44
2022-09-24T12:18:59.880Z,101341.56
2022-09-24T12:21:41.717Z,101333.63
2022-09-24T12:24:30.485Z,101340.69
2022-09-24T12:27:02.679Z,101341.53
2022-09-24T12:30:00.180Z,101347.75
2022-09-24T12:32:56.833Z,101346.88
2022-09-24T12:35:47.339Z,101344.22
2022-09-24T12:38:15.624Z,101344.22
2022-09-24T12:41:08.809Z,101342.47
2022-09-24T12:43:37.264Z,101348.63
2022-09-24T12:46:09.186Z,101355.69
2022-09-24T12:48:38.872Z,101352.19
2022-09-24T12:51:12.175Z,101344.22
2022-09-24T12:53:43.234Z,101354.81
2022-09-24T12:56:12.121Z,101360.13
2022-09-24T12:58:43.598Z,101358.34
2022-09-24T13:01:26.074Z,101362.75
2022-09-24T13:04:13.862Z,101361.88
2022-09-24T13:06:48.941Z,101362.75
2022-09-24T13:09:46.734Z,101355.69
2022-09-24T13:12:15.266Z,101370.69
2022-09-24T13:15:28.872Z,101358.34
2022-09-24T13:18:04.379Z,101361.00
2022-09-24T13:20:34.773Z,101365.41
2022-09-24T13:23:09.147Z,101369.81
2022-09-24T13:25:37.738Z,101376.88
2022-09-24T13:28:38.447Z,101383.94
2022-09-24T13:31:29.582Z,101373.34
2022-09-24T13:34:24.231Z,101375.13
2022-09-24T13:37:17.590Z,101383.94
2022-09-24T13:39:52.033Z,101391.91
2022-09-24T13:42:39.635Z,101384.81
2022-09-24T13:45:29.746Z,101375.13
2022-09-24T13:48:02.592Z,101389.25
2022-09-24T13:50:44.283Z,101387.47
2022-09-24T13:53:30.544Z,101376.91
2022-09-24T13:56:15.266Z,101391.00
2022-09-24T13:58:44.097Z,101391.00
2022-09-24T14:01:19.288Z,101386.59
2022-09-24T14:04:08.166Z,101389.25
2022-09-24T14:06:40.033Z,101390.13
2022-09-24T14:09:36.210Z,101388.34
2022-09-24T14:12:22.737Z,101388.34
2022-09-24T14:14:58.670Z,101392.78
2022-09-24T14:17:27.043Z,101384.81
2022-09-24T14:19:59.968Z,101389.25
2022-09-24T14:22:40.194Z,101388.34
2022-09-24T14:25:23.825Z,101376.91
2022-09-24T14:27:52.267Z,101382.19
2022-09-24T14:30:25.893Z,101391.88
2022-09-24T14:33:03.306Z,101393.66
2022-09-24T14:35:33.929Z,101400.69
2022-09-24T14:38:06.212Z,101398.06
2022-09-24T14:40:44.992Z,101398.06
2022-09-24T14:43:57.819Z,101402.47
2022-09-24T14:46:36.455Z,101400.69
2022-09-24T14:49:27.028Z,101407.78
2022-09-24T14:52:01.355Z,101406.91
2022-09-24T14:54:32.824Z,101401.59
2022-09-24T14:57:19.788Z,101400.72
2022-09-24T14:59:48.128Z,101408.66
2022-09-24T15:02:28.845Z,101408.63
2022-09-24T15:05:06.116Z,101406.88
2022-09-24T15:07:35.922Z,101398.06
2022-09-24T15:10:06.455Z,101421.88
2022-09-24T15:12:40.981Z,101401.56
2022-09-24T15:15:17.006Z,101402.44
2022-09-24T15:17:47.419Z,101407.75
2022-09-24T15:20:16.103Z,101408.63
2022-09-24T15:22:46.848Z,101410.41
2022-09-24T15:25:15.884Z,101407.75
2022-09-24T15:27:45.341Z,101400.72
2022-09-24T15:30:19.799Z,101395.41
2022-09-24T15:32:52.306Z,101407.78
2022-09-24T15:35:20.920Z,101418.34
2022-09-24T15:37:49.549Z,101421.03
2022-09-24T15:40:20.729Z,101431.63
2022-09-24T15:42:53.036Z,101420.13
2022-09-24T15:45:24.468Z,101428.94
2022-09-24T15:47:54.055Z,101434.19
2022-09-24T15:50:23.961Z,101429.78
2022-09-24T15:52:56.060Z,101428.88
2022-09-24T15:55:24.659Z,101432.38
2022-09-24T15:57:54.833Z,101422.69
2022-09-24T16:00:26.407Z,101426.16
2022-09-24T16:02:59.061Z,101427.94
2022-09-24T16:05:27.507Z,101426.19
2022-09-24T16:07:55.861Z,101427.94
2022-09-24T16:10:24.322Z,101423.56
2022-09-24T16:12:52.854Z,101434.13
2022-09-24T16:15:21.744Z,101431.50
2022-09-24T16:17:50.243Z,101433.25
2022-09-24T16:20:21.961Z,101426.22
2022-09-24T16:22:50.303Z,101435.03
2022-09-24T16:25:18.894Z,101434.13
2022-09-24T16:27:47.296Z,101440.31
2022-09-24T16:30:15.725Z,101432.38
2022-09-24T16:32:44.278Z,101442.09
2022-09-24T16:35:13.505Z,101438.56
2022-09-24T16:37:41.952Z,101435.06
2022-09-24T16:40:10.852Z,101443.88
2022-09-24T16:42:40.573Z,101444.75
2022-09-24T16:45:11.048Z,101438.59
2022-09-24T16:47:39.448Z,101443.88
2022-09-24T16:50:08.249Z,101448.28
2022-09-24T16:52:36.694Z,101450.91
2022-09-24T16:55:05.560Z,101446.53
2022-09-24T16:57:36.817Z,101455.34
2022-09-24T17:00:08.629Z,101445.63
2022-09-24T17:02:37.614Z,101450.03
2022-09-24T17:05:06.590Z,101452.69
2022-09-24T17:07:38.430Z,101451.84
2022-09-24T17:10:15.682Z,101458.88
2022-09-24T17:12:50.118Z,101465.06
2022-09-24T17:15:20.750Z,101466.84
2022-09-24T17:17:50.951Z,101464.19
2022-09-24T17:20:19.546Z,101472.13
2022-09-24T17:22:49.094Z,101469.50
2022-09-24T17:25:17.928Z,101470.38
2022-09-24T17:27:46.444Z,101468.59
2022-09-24T17:30:14.886Z,101471.25
2022-09-24T17:32:43.260Z,101472.13
2022-09-24T17:35:15.166Z,101467.69
2022-09-24T17:37:45.783Z,101468.56
2022-09-24T17:40:21.313Z,101476.50
2022-09-24T17:42:52.774Z,101472.09
2022-09-24T17:45:22.249Z,101479.16
2022-09-24T17:47:56.674Z,101485.31
2022-09-24T17:50:25.020Z,101480.91
2022-09-24T17:52:53.408Z,101482.69
2022-09-24T17:55:21.979Z,101484.44
2022-09-24T17:57:50.329Z,101484.44
2022-09-24T18:00:18.764Z,101486.19
2022-09-24T18:02:47.120Z,101488.84
2022-09-24T18:05:15.759Z,101492.38
2022-09-24T18:07:45.640Z,101498.53
2022-09-24T18:10:14.307Z,101498.53
2022-09-24T18:12:43.329Z,101492.34
2022-09-24T18:15:12.174Z,101495.00
2022-09-24T18:17:40.547Z,101496.75
2022-09-24T18:20:09.686Z,101506.44
2022-09-24T18:22:39.866Z,101512.63
2022-09-24T18:25:08.904Z,101523.22
2022-09-24T18:27:38.162Z,101525.84
2022-09-24T18:30:09.759Z,101516.13
2022-09-24T18:32:40.296Z,101512.59
2022-09-24T18:35:09.568Z,101515.22
2022-09-24T18:37:38.934Z,101520.53
2022-09-24T18:40:08.174Z,101519.63
2022-09-24T18:42:36.484Z,101521.34
2022-09-24T18:45:05.358Z,101528.38
2022-09-24T18:47:38.361Z,101525.72
2022-09-24T18:50:07.566Z,101524.81
2022-09-24T18:52:36.264Z,101527.44
2022-09-24T18:55:06.687Z,101523.03
2022-09-24T18:57:35.415Z,101527.41
2022-09-24T19:00:12.534Z,101524.75
2022-09-24T19:02:40.923Z,101521.22
2022-09-24T19:05:09.554Z,101523.84
2022-09-24T19:07:38.002Z,101524.72
2022-09-24T19:10:07.314Z,101530.84
2022-09-24T19:12:38.754Z,101535.25
2022-09-24T19:15:07.683Z,101549.38
2022-09-24T19:17:36.006Z,101547.56
2022-09-24T19:20:04.515Z,101537.88
2022-09-24T19:22:34.000Z,101546.69
2022-09-24T19:25:02.366Z,101546.66
2022-09-24T19:27:40.325Z,101552.81
2022-09-24T19:30:08.863Z,101544.00
2022-09-24T19:32:39.206Z,101540.44
2022-09-24T19:35:07.858Z,101547.47
2022-09-24T19:37:36.751Z,101549.22
2022-09-24T19:40:05.654Z,101548.34
2022-09-24T19:42:34.135Z,101543.94
2022-09-24T19:45:05.882Z,101551.84
2022-09-24T19:47:34.491Z,101552.75
2022-09-24T19:50:03.099Z,101550.97
2022-09-24T19:52:32.288Z,101552.75
2022-09-24T19:55:01.638Z,101551.88
2022-09-24T19:57:33.475Z,101556.28
2022-09-24T20:00:05.523Z,101548.34
2022-09-24T20:02:37.367Z,101544.81
2022-09-24T20:05:06.252Z,101543.03
2022-09-24T20:07:34.675Z,101541.28
2022-09-24T20:10:03.046Z,101541.28
2022-09-24T20:12:31.325Z,101536.88
2022-09-24T20:14:59.691Z,101538.63
2022-09-24T20:17:28.145Z,101541.28
2022-09-24T20:19:57.054Z,101539.50
2022-09-24T20:22:26.226Z,101536.84
2022-09-24T20:24:55.557Z,101534.22
2022-09-24T20:27:42.535Z,101535.97
2022-09-24T20:30:11.255Z,101537.72
2022-09-24T20:32:42.529Z,101530.72
2022-09-24T20:35:11.694Z,101541.25
2022-09-24T20:37:40.528Z,101536.88
2022-09-24T20:40:10.106Z,101547.44
2022-09-24T20:42:38.999Z,101543.03
2022-09-24T20:45:08.163Z,101543.06
2022-09-24T20:47:41.242Z,101535.13
2022-09-24T20:50:11.335Z,101535.16
2022-09-24T20:52:39.751Z,101537.81
2022-09-24T20:55:08.766Z,101536.94
2022-09-24T20:57:37.727Z,101538.72
2022-09-24T21:00:07.534Z,101541.38
2022-09-24T21:02:41.435Z,101536.13
2022-09-24T21:05:11.466Z,101533.47
2022-09-24T21:07:40.457Z,101538.75
2022-09-24T21:10:13.144Z,101542.25
2022-09-24T21:12:41.633Z,101539.59
2022-09-24T21:15:11.875Z,101537.84
2022-09-24T21:17:40.521Z,101542.22
2022-09-24T21:20:10.136Z,101546.63
2022-09-24T21:22:38.696Z,101551.94
2022-09-24T21:25:07.591Z,101557.22
2022-09-24T21:27:36.510Z,101553.69
2022-09-24T21:30:06.323Z,101556.34
2022-09-24T21:32:35.810Z,101547.50
2022-09-24T21:35:04.823Z,101547.50
2022-09-24T21:37:34.083Z,101549.25
2022-09-24T21:40:10.518Z,101552.75
2022-09-24T21:42:39.364Z,101550.13
2022-09-24T21:45:08.392Z,101546.59
2022-09-24T21:47:36.706Z,101552.75
2022-09-24T21:50:05.747Z,101558.03
2022-09-24T21:52:34.032Z,101559.75
2022-09-24T21:55:02.277Z,101558.00
2022-09-24T21:57:30.769Z,101552.72
2022-09-24T22:00:10.131Z,101550.06
2022-09-24T22:02:43.378Z,101549.19
2022-09-24T22:05:16.552Z,101547.41
2022-09-24T22:07:46.787Z,101556.22
2022-09-24T22:10:15.287Z,101548.25
2022-09-24T22:12:43.903Z,101550.00
2022-09-24T22:15:12.413Z,101547.38
2022-09-24T22:17:40.751Z,101550.00
2022-09-24T22:20:09.738Z,101552.66
2022-09-24T22:22:38.269Z,101557.94
2022-09-24T22:25:07.469Z,101555.28
2022-09-24T22:27:35.801Z,101545.59
2022-09-24T22:30:04.856Z,101539.41
2022-09-24T22:32:33.224Z,101547.31
2022-09-24T22:35:20.247Z,101538.50
2022-09-24T22:37:50.642Z,101540.25
2022-09-24T22:40:22.742Z,101539.38
2022-09-24T22:42:51.502Z,101537.59
2022-09-24T22:45:20.239Z,101530.53
2022-09-24T22:47:48.942Z,101534.94
2022-09-24T22:50:17.381Z,101530.50
2022-09-24T22:52:45.911Z,101523.47
2022-09-24T22:55:14.857Z,101530.53
2022-09-24T22:57:43.486Z,101527.84
2022-09-24T23:00:13.123Z,101534.91
2022-09-24T23:02:42.051Z,101531.34
2022-09-24T23:05:10.563Z,101526.97
2022-09-24T23:07:38.989Z,101531.34
2022-09-24T23:10:08.068Z,101533.13
2022-09-24T23:12:36.648Z,101542.81
2022-09-24T23:15:05.749Z,101532.25
2022-09-24T23:17:37.897Z,101535.75
2022-09-24T23:20:07.910Z,101532.22
2022-09-24T23:22:36.446Z,101540.13
2022-09-24T23:25:07.427Z,101531.34
2022-09-24T23:27:37.044Z,101538.38
2022-09-24T23:30:07.983Z,101534.84
2022-09-24T23:32:36.645Z,101546.28
2022-09-24T23:35:05.459Z,101528.72
2022-09-24T23:37:33.857Z,101531.34
2022-09-24T23:40:03.074Z,101533.09
2022-09-24T23:42:34.743Z,101537.50
2022-09-24T23:45:03.276Z,101541.91
2022-09-24T23:47:36.040Z,101534.00
2022-09-24T23:50:05.505Z,101546.28
2022-09-24T23:52:34.025Z,101543.66
2022-09-24T23:55:07.211Z,101550.69
2022-09-24T23:57:35.734Z,101545.34
